Terminal Aerodrome Forecast
Issued by NWS

Home | Current Version | Previous Version | Text Only | Print | Product List | Glossary On
Versions: 1 2 3 4 5 6 7 8 9 10 11 12 13 14 15 16 17 18 19 20 21
381
FTUS41 KGYX 042320
TAFHIE
TAF
KHIE 042320Z 0500/0524 11003KT 6SM -RA OVC050
     FM050200 11004KT 6SM -RA BR OVC015
     FM050700 09003KT P6SM OVC007
     FM051000 08008KT P6SM OVC020=

USA.gov is the U.S. government's official web portal to all federal, state and local government web resources and services.